Terminal Aerodrome Forecast
Issued by NWS

Home | Current Version | Previous Version | Text Only | Print | Product List | Glossary Off
Versions: 1 2 3 4 5 6 7 8 9 10 11 12 13 14 15 16 17 18 19 20

000
FTUS43 KTOP 011900 AAA
TAFMHK
TAF AMD
KMHK 011927Z 0119/0218 31005KT P6SM BKN025
      TEMPO 0119/0123 SCT025
     FM020200 05002KT P6SM BKN100
     FM020900 11006KT P6SM BKN060=

USA.gov is the U.S. government's official web portal to all federal, state and local government web resources and services.